Time;durP1;ratioP1;P1;durP2;ratioP2;P2;SDS_P1;SDS_P2;PMS_P1;PMS_P2;Temp;Humidity;BMP_temperature;BMP_pressure;BME280_temperature;BME280_humidity;BME280_pressure;Samples;Min_cycle;Max_cycle;Signal;HPM_P1;HPM_P2
2023/01/23 00:02:08;;;;;;;12.35;7.50;;;;;;;3.51;100.00;100886.50;4999934;28;20487;-90
2023/01/23 00:04:34;;;;;;;18.33;7.70;;;;;;;3.45;100.00;100876.47;5000296;28;20038;-88
2023/01/23 00:06:59;;;;;;;13.13;7.07;;;;;;;3.44;100.00;100868.72;5004738;28;20357;-86
2023/01/23 00:09:25;;;;;;;11.65;6.80;;;;;;;3.65;100.00;100872.44;5005263;28;20082;-89
2023/01/23 00:15:14;;;;;;;15.73;8.18;;;;;;;3.31;100.00;100867.91;5018935;28;20078;-85
2023/01/23 00:17:40;;;;;;;14.45;8.07;;;;;;;3.19;100.00;100866.13;5018821;28;20027;-86
2023/01/23 00:20:44;;;;;;;14.77;8.48;;;;;;;3.11;100.00;100866.69;5018781;28;20035;-85
2023/01/23 00:23:10;;;;;;;14.15;7.97;;;;;;;3.27;100.00;100866.44;4983076;28;20053;-86
2023/01/23 00:25:35;;;;;;;13.60;7.93;;;;;;;3.26;100.00;100859.53;5000031;28;20053;-85
2023/01/23 00:28:04;;;;;;;15.00;8.75;;;;;;;3.32;100.00;100859.94;5014736;28;20052;-84
2023/01/23 00:30:31;;;;;;;14.98;8.23;;;;;;;3.13;100.00;100859.53;5015126;28;20093;-86
2023/01/23 00:32:56;;;;;;;15.00;8.07;;;;;;;3.06;100.00;100863.53;5005567;28;20034;-89
2023/01/23 00:35:24;;;;;;;12.50;7.57;;;;;;;3.17;100.00;100863.63;4969914;28;20038;-88
2023/01/23 00:37:51;;;;;;;14.68;7.80;;;;;;;3.45;100.00;100865.13;4986554;28;20038;-89
2023/01/23 00:40:20;;;;;;;12.88;7.90;;;;;;;3.42;100.00;100866.19;4982804;28;20057;-86
2023/01/23 00:42:46;;;;;;;13.40;8.25;;;;;;;3.35;100.00;100874.59;4999479;28;20038;-88
2023/01/23 00:45:11;;;;;;;13.82;8.57;;;;;;;3.31;100.00;100879.22;4999896;28;20034;-88
2023/01/23 00:47:37;;;;;;;18.05;8.80;;;;;;;3.42;100.00;100884.53;4999907;28;20034;-86
2023/01/23 00:50:05;;;;;;;14.18;8.10;;;;;;;3.60;100.00;100888.50;4981525;28;20038;-87
2023/01/23 00:52:30;;;;;;;14.13;8.48;;;;;;;3.25;100.00;100877.00;5000084;28;20041;-88
2023/01/23 00:54:58;;;;;;;15.50;8.05;;;;;;;3.38;100.00;100880.44;4998883;28;20030;-88
2023/01/23 00:57:24;;;;;;;15.48;8.00;;;;;;;3.41;100.00;100885.50;4965666;28;20042;-88
2023/01/23 01:00:09;;;;;;;13.27;8.20;;;;;;;3.19;100.00;100874.81;4981370;28;20120;-91
2023/01/23 01:02:35;;;;;;;12.98;7.78;;;;;;;3.29;100.00;100870.63;4965409;28;20411;-89
2023/01/23 01:05:00;;;;;;;12.90;8.00;;;;;;;3.34;100.00;100876.41;4997105;28;20030;-89
2023/01/23 01:07:26;;;;;;;13.35;7.72;;;;;;;3.33;100.00;100881.72;4997465;28;20038;-88
2023/01/23 01:09:52;;;;;;;15.85;8.48;;;;;;;3.35;100.00;100864.94;4997122;28;20541;-87
2023/01/23 01:12:18;;;;;;;15.63;8.18;;;;;;;3.46;100.00;100872.91;4980655;28;20050;-89
2023/01/23 01:14:44;;;;;;;18.25;8.25;;;;;;;3.27;100.00;100875.16;4998332;28;20034;-87
2023/01/23 01:17:10;;;;;;;15.65;8.70;;;;;;;3.22;100.00;100869.38;4998304;28;20321;-87
2023/01/23 01:19:35;;;;;;;19.23;10.10;;;;;;;3.34;100.00;100876.41;4999601;28;20027;-87
2023/01/23 01:22:01;;;;;;;16.70;9.40;;;;;;;3.35;100.00;100875.44;4999422;28;20035;-85
2023/01/23 01:24:27;;;;;;;16.83;9.63;;;;;;;3.55;100.00;100872.25;4998681;28;20081;-86
2023/01/23 01:26:52;;;;;;;18.95;10.05;;;;;;;3.51;100.00;100860.28;4997050;28;20041;-88
2023/01/23 01:29:18;;;;;;;16.58;8.88;;;;;;;3.76;100.00;100859.41;4980552;28;20093;-86
2023/01/23 01:32:05;;;;;;;14.65;7.63;;;;;;;3.70;100.00;100851.97;4996362;28;20035;-88
2023/01/23 01:34:30;;;;;;;13.43;7.47;;;;;;;3.76;100.00;100856.78;4980505;28;20038;-87
2023/01/23 01:36:56;;;;;;;12.07;6.78;;;;;;;3.60;100.00;100862.28;4997160;28;20102;-86
2023/01/23 01:39:22;;;;;;;13.20;7.85;;;;;;;3.35;100.00;100862.31;4997409;28;20129;-86
2023/01/23 01:41:47;;;;;;;11.93;7.40;;;;;;;3.20;100.00;100860.78;4980400;28;20042;-86
2023/01/23 01:44:21;;;;;;;14.27;8.07;;;;;;;3.23;100.00;100859.75;4996841;28;20050;-86
2023/01/23 01:46:48;;;;;;;16.85;8.90;;;;;;;3.35;100.00;100859.72;4979350;28;20042;-87
2023/01/23 01:49:28;;;;;;;16.35;9.05;;;;;;;3.50;100.00;100856.03;4979373;28;20042;-85
2023/01/23 01:52:05;;;;;;;13.27;8.55;;;;;;;3.61;100.00;100840.34;4997491;28;20562;-89
2023/01/23 01:54:48;;;;;;;14.90;8.43;;;;;;;3.68;100.00;100843.38;4997443;28;20068;-86
2023/01/23 01:57:25;;;;;;;12.73;7.97;;;;;;;3.68;100.00;100846.00;4980284;28;20042;-85
2023/01/23 02:03:39;;;;;;;13.32;8.15;;;;;;;3.76;100.00;100838.44;5001510;28;20061;-86
2023/01/23 02:06:06;;;;;;;12.50;7.97;;;;;;;3.87;100.00;100829.78;5009956;28;20019;-86
2023/01/23 02:08:47;;;;;;;12.88;7.65;;;;;;;4.00;100.00;100825.31;5012065;28;20039;-87
2023/01/23 02:14:34;;;;;;;10.98;6.80;;;;;;;4.11;100.00;100812.22;4998949;28;20022;-87
2023/01/23 02:17:02;;;;;;;14.48;7.57;;;;;;;4.07;100.00;100816.06;4996266;28;20102;-87
2023/01/23 02:23:12;;;;;;;11.32;6.85;;;;;;;4.31;100.00;100800.28;4984518;28;20073;-87
2023/01/23 02:25:43;;;;;;;12.13;7.40;;;;;;;4.50;100.00;100798.78;4984361;28;20042;-86
2023/01/23 02:28:13;;;;;;;12.50;7.47;;;;;;;4.59;100.00;100797.22;4999661;28;20035;-85
2023/01/23 02:30:59;;;;;;;10.60;6.97;;;;;;;4.59;100.00;100795.44;4966482;28;20479;-86
2023/01/23 02:33:24;;;;;;;11.27;6.88;;;;;;;4.72;100.00;100794.50;4983385;28;20098;-85
2023/01/23 02:35:51;;;;;;;13.60;7.78;;;;;;;4.58;100.00;100793.75;4999009;28;20053;-87
2023/01/23 02:38:22;;;;;;;13.18;8.00;;;;;;;4.29;100.00;100784.63;4984243;28;20034;-86
2023/01/23 02:40:54;;;;;;;11.65;7.40;;;;;;;4.23;100.00;100776.41;4982973;28;20092;-88
2023/01/23 02:43:27;;;;;;;13.68;7.03;;;;;;;4.25;100.00;100784.97;4999032;28;20042;-85
2023/01/23 02:46:07;;;;;;;12.68;8.13;;;;;;;4.21;100.00;100781.75;4982987;28;20034;-86
2023/01/23 02:48:34;;;;;;;13.63;7.65;;;;;;;4.16;100.00;100786.50;4982616;28;20070;-86
2023/01/23 02:51:38;;;;;;;12.85;7.57;;;;;;;4.06;100.00;100778.50;4982748;28;20042;-85
2023/01/23 02:54:05;;;;;;;13.30;8.15;;;;;;;4.25;100.00;100772.69;4999761;28;20049;-89
2023/01/23 02:56:32;;;;;;;13.52;8.70;;;;;;;4.30;100.00;100770.59;4999255;28;20042;-87
2023/01/23 03:05:12;;;;;;;12.50;7.65;;;;;;;4.26;100.00;100766.50;4998857;28;20446;-88
2023/01/23 03:07:38;;;;;;;13.38;8.07;;;;;;;4.33;100.00;100765.09;4999460;28;20034;-87
2023/01/23 03:10:43;;;;;;;13.18;7.85;;;;;;;4.39;100.00;100758.53;5000346;28;20376;-87
2023/01/23 03:13:10;;;;;;;16.20;8.85;;;;;;;4.41;100.00;100757.47;4983694;28;20100;-84
2023/01/23 03:15:41;;;;;;;12.00;7.85;;;;;;;4.38;100.00;100757.69;4966943;28;20038;-89
2023/01/23 03:18:07;;;;;;;13.35;8.02;;;;;;;4.49;100.00;100754.25;4982561;28;20026;-84
2023/01/23 03:23:58;;;;;;;13.98;8.35;;;;;;;4.32;100.00;100737.19;4999252;28;20396;-86
2023/01/23 03:26:23;;;;;;;13.45;8.23;;;;;;;4.20;100.00;100738.13;4991649;28;20045;-85
2023/01/23 03:31:58;;;;;;;12.68;7.47;;;;;;;3.96;100.00;100719.81;4996736;28;20030;-86
2023/01/23 03:34:24;;;;;;;12.90;7.30;;;;;;;4.09;100.00;100720.56;5018909;28;20042;-84
2023/01/23 03:36:50;;;;;;;11.82;8.10;;;;;;;4.06;100.00;100714.72;5012823;28;20090;-88
2023/01/23 03:42:03;;;;;;;13.85;8.10;;;;;;;4.02;100.00;100702.78;4989501;28;20101;-87
2023/01/23 03:44:29;;;;;;;13.43;8.02;;;;;;;4.20;100.00;100701.41;4982324;28;20117;-88
2023/01/23 03:46:55;;;;;;;11.00;7.35;;;;;;;4.16;100.00;100699.97;4967810;28;20069;-85
2023/01/23 03:49:24;;;;;;;14.45;7.15;;;;;;;4.24;100.00;100700.22;4965847;28;20057;-85
2023/01/23 03:51:56;;;;;;;12.93;7.93;;;;;;;4.08;100.00;100694.44;4968325;28;20133;-87
2023/01/23 03:54:22;;;;;;;14.57;7.50;;;;;;;4.09;100.00;100699.59;4998195;28;20176;-87
2023/01/23 03:56:49;;;;;;;13.02;7.18;;;;;;;4.13;100.00;100702.81;5000468;28;20039;-88
2023/01/23 04:03:44;;;;;;;12.52;7.38;;;;;;;4.07;100.00;100698.03;4999993;28;20049;-87
2023/01/23 04:06:10;;;;;;;13.43;8.27;;;;;;;4.04;100.00;100691.22;4982339;28;20092;-88
2023/01/23 04:08:36;;;;;;;12.95;8.00;;;;;;;3.85;100.00;100688.31;4998302;28;20042;-87
2023/01/23 04:14:31;;;;;;;14.05;7.68;;;;;;;3.76;100.00;100696.03;4982277;28;20046;-90
2023/01/23 04:17:00;;;;;;;14.30;8.23;;;;;;;3.65;100.00;100683.72;4999270;28;20034;-88
2023/01/23 04:19:28;;;;;;;13.02;8.15;;;;;;;3.52;100.00;100683.81;4998209;28;20041;-85
2023/01/23 04:21:54;;;;;;;12.77;7.93;;;;;;;3.59;100.00;100685.03;4982115;28;20122;-86
2023/01/23 04:24:19;;;;;;;18.25;7.88;;;;;;;3.55;100.00;100686.19;4982113;28;20038;-87
2023/01/23 04:26:45;;;;;;;12.50;8.05;;;;;;;3.65;100.00;100686.34;4982022;28;20030;-85
2023/01/23 04:29:11;;;;;;;14.35;7.90;;;;;;;3.65;100.00;100689.81;4988197;28;20105;-88
2023/01/23 04:35:01;;;;;;;;;;;;;;;3.74;100.00;100680.44;4981993;28;20070;-87
2023/01/23 04:37:26;;;;;;;13.52;7.90;;;;;;;3.68;100.00;100688.75;4997345;28;19918;-85
2023/01/23 04:43:20;;;;;;;15.73;8.52;;;;;;;3.70;100.00;100670.28;4981062;28;20495;-86
2023/01/23 04:45:50;;;;;;;15.10;8.95;;;;;;;3.76;100.00;100661.97;4966097;28;20070;-87
2023/01/23 04:48:35;;;;;;;14.15;8.73;;;;;;;3.72;100.00;100668.38;4998923;28;20057;-86
2023/01/23 04:51:21;;;;;;;12.07;8.10;;;;;;;3.72;100.00;100671.00;4997410;28;20034;-89
2023/01/23 04:53:46;;;;;;;14.52;8.82;;;;;;;3.89;100.00;100671.41;4980963;28;20038;-88
2023/01/23 04:56:12;;;;;;;14.50;8.23;;;;;;;4.04;100.00;100672.06;4981095;28;20034;-87
2023/01/23 04:58:37;;;;;;;14.10;8.73;;;;;;;4.07;100.00;100671.81;4965779;28;20067;-85
2023/01/23 05:01:06;;;;;;;15.32;8.15;;;;;;;4.06;100.00;100678.84;4965643;28;20065;-85
2023/01/23 05:03:33;;;;;;;13.80;8.50;;;;;;;3.93;100.00;100678.09;4980950;28;20042;-85
2023/01/23 05:05:59;;;;;;;12.77;7.47;;;;;;;3.92;100.00;100680.84;4980336;28;20058;-85
2023/01/23 05:08:25;;;;;;;14.38;8.88;;;;;;;3.89;100.00;100694.16;5012457;28;20026;-83
2023/01/23 05:11:02;;;;;;;19.98;8.15;;;;;;;3.74;100.00;100687.47;5000554;28;20033;-85
2023/01/23 05:13:29;;;;;;;14.23;8.40;;;;;;;3.77;100.00;100687.25;4995301;28;20038;-85
2023/01/23 05:15:56;;;;;;;14.95;8.10;;;;;;;3.91;100.00;100684.44;4996285;28;20034;-86
2023/01/23 05:18:24;;;;;;;18.00;8.82;;;;;;;3.89;100.00;100681.06;4997406;28;20093;-87
2023/01/23 05:21:01;;;;;;;12.73;8.15;;;;;;;3.86;100.00;100683.91;4982605;28;20061;-85
2023/01/23 05:23:27;;;;;;;12.00;7.78;;;;;;;3.99;100.00;100666.31;4981600;28;20038;-84
2023/01/23 05:25:53;;;;;;;12.18;7.65;;;;;;;3.90;100.00;100664.41;4983768;28;20026;-83
2023/01/23 05:28:21;;;;;;;18.27;8.70;;;;;;;3.88;100.00;100655.81;5009357;28;20033;-81
2023/01/23 05:30:51;;;;;;;16.55;9.13;;;;;;;3.79;100.00;100654.72;4988634;28;20034;-84
2023/01/23 05:33:26;;;;;;;14.80;8.10;;;;;;;3.78;100.00;100653.03;4996934;28;20030;-85
2023/01/23 05:35:52;;;;;;;14.70;8.60;;;;;;;3.75;100.00;100657.66;4985036;28;20126;-82
2023/01/23 05:38:17;;;;;;;14.30;8.93;;;;;;;3.78;100.00;100662.72;5000553;28;20050;-84
2023/01/23 05:40:44;;;;;;;16.10;8.60;;;;;;;3.78;100.00;100649.59;4981816;28;20038;-85
2023/01/23 05:43:14;;;;;;;15.25;8.77;;;;;;;3.91;100.00;100643.28;5001169;28;20061;-87
2023/01/23 05:46:05;;;;;;;12.27;7.78;;;;;;;4.10;100.00;100634.88;5002543;28;20130;-87
2023/01/23 05:48:51;;;;;;;13.23;7.28;;;;;;;4.00;100.00;100636.53;5001458;28;20542;-88
2023/01/23 05:51:41;;;;;;;19.77;9.15;;;;;;;3.90;100.00;100630.31;5003251;28;20027;-88
2023/01/23 05:54:13;;;;;;;14.30;9.05;;;;;;;4.03;100.00;100620.56;4989679;28;20039;-90
2023/01/23 05:56:43;;;;;;;16.80;9.50;;;;;;;3.92;100.00;100625.78;4989050;28;20038;-85
2023/01/23 05:59:27;;;;;;;17.15;9.85;;;;;;;3.72;100.00;100615.97;4996865;28;20061;-89
2023/01/23 06:02:11;;;;;;;17.15;9.85;;;;;;;3.77;100.00;100619.09;4977923;28;20121;-90
2023/01/23 06:04:37;;;;;;;15.70;9.82;;;;;;;3.89;100.00;100611.13;4976657;28;20046;-89
2023/01/23 06:07:16;;;;;;;16.05;9.90;;;;;;;3.98;100.00;100614.81;4973415;28;20034;-90
2023/01/23 06:09:42;;;;;;;17.48;10.10;;;;;;;3.90;100.00;100593.59;4972822;28;20037;-87
2023/01/23 06:12:10;;;;;;;14.20;8.70;;;;;;;3.80;100.00;100597.88;5005271;28;20034;-90
2023/01/23 06:14:36;;;;;;;17.50;9.73;;;;;;;3.94;100.00;100593.25;4988882;28;20445;-90
2023/01/23 06:17:07;;;;;;;15.73;9.63;;;;;;;3.83;100.00;100587.16;4971021;28;20043;-90
2023/01/23 06:19:33;;;;;;;17.35;9.35;;;;;;;3.78;100.00;100594.56;4984719;28;20074;-88
2023/01/23 06:21:58;;;;;;;16.52;8.73;;;;;;;3.94;100.00;100600.28;4986891;28;20030;-89
2023/01/23 06:24:28;;;;;;;16.00;9.93;;;;;;;3.99;100.00;100598.97;4987869;28;20053;-90
2023/01/23 06:26:53;;;;;;;19.25;9.23;;;;;;;4.02;100.00;100597.91;5006722;28;20046;-90
2023/01/23 06:29:22;;;;;;;15.05;9.13;;;;;;;3.96;100.00;100598.38;4989212;28;20034;-88
2023/01/23 06:31:48;;;;;;;15.63;9.48;;;;;;;3.87;100.00;100607.78;4985879;28;20050;-91
2023/01/23 06:34:14;;;;;;;19.20;9.00;;;;;;;3.95;100.00;100609.81;4989133;28;20046;-87
2023/01/23 06:36:50;;;;;;;15.48;9.23;;;;;;;3.95;100.00;100601.94;4989527;28;20039;-88
2023/01/23 06:39:19;;;;;;;16.63;8.63;;;;;;;3.78;100.00;100615.53;4991495;28;20044;-88
2023/01/23 06:41:45;;;;;;;16.45;9.25;;;;;;;3.70;100.00;100604.78;4976465;28;20034;-86
2023/01/23 06:44:17;;;;;;;20.63;9.98;;;;;;;3.68;100.00;100619.78;4992887;28;20100;-87
2023/01/23 06:46:43;;;;;;;17.83;9.55;;;;;;;3.74;100.00;100627.19;4989491;28;20089;-89
2023/01/23 06:49:09;;;;;;;15.68;9.70;;;;;;;3.81;100.00;100623.16;5008785;28;20026;-86
2023/01/23 06:51:36;;;;;;;17.80;10.00;;;;;;;3.76;100.00;100627.88;4991668;28;20368;-90
2023/01/23 06:54:02;;;;;;;17.65;10.10;;;;;;;3.78;100.00;100632.06;4973276;28;20046;-92
2023/01/23 06:56:28;;;;;;;16.15;9.85;;;;;;;3.96;100.00;100637.69;5005094;28;20065;-85
2023/01/23 06:58:54;;;;;;;17.98;10.35;;;;;;;3.92;100.00;100644.97;4969451;28;20046;-89
2023/01/23 07:01:27;;;;;;;;;;;;;;;3.93;100.00;100643.19;4998129;28;20045;-88
2023/01/23 07:04:11;;;;;;;22.95;10.07;;;;;;;3.90;100.00;100636.41;5001781;28;19918;-90
2023/01/23 07:06:41;;;;;;;19.45;10.82;;;;;;;3.86;100.00;100640.19;4985096;28;20110;-88
2023/01/23 07:09:07;;;;;;;19.75;10.98;;;;;;;3.83;100.00;100639.59;4966764;28;20034;-89
2023/01/23 07:11:36;;;;;;;17.70;10.45;;;;;;;4.07;100.00;100632.47;4986256;28;20042;-91
2023/01/23 07:14:02;;;;;;;21.25;11.02;;;;;;;4.01;100.00;100646.06;4992967;28;20099;-89
2023/01/23 07:16:29;;;;;;;19.20;10.35;;;;;;;3.89;100.00;100639.97;4965154;28;20176;-89
2023/01/23 07:18:58;;;;;;;16.00;10.00;;;;;;;3.94;100.00;100642.25;4975072;28;20483;-91
2023/01/23 07:21:27;;;;;;;17.10;10.45;;;;;;;3.95;100.00;100649.13;4980389;28;20042;-92
2023/01/23 07:23:52;;;;;;;19.00;10.27;;;;;;;3.95;100.00;100638.66;4983182;28;20042;-93
2023/01/23 07:26:24;;;;;;;24.13;10.07;;;;;;;4.01;100.00;100638.19;4976611;28;20037;-92
2023/01/23 07:28:49;;;;;;;17.15;10.43;;;;;;;4.12;100.00;100641.66;5001340;28;20050;-92
2023/01/23 07:31:15;;;;;;;16.67;10.18;;;;;;;4.16;100.00;100644.88;5018201;28;20030;-92
2023/01/23 07:34:00;;;;;;;17.98;10.40;;;;;;;4.23;100.00;100646.06;5000047;28;20030;-93
2023/01/23 07:42:16;;;;;;;17.15;10.70;;;;;;;4.32;100.00;100626.16;5016734;28;20046;-91
2023/01/23 07:44:51;;;;;;;19.15;10.95;;;;;;;4.50;100.00;100628.19;4985502;28;20050;-91
2023/01/23 07:47:21;;;;;;;20.58;11.43;;;;;;;4.41;100.00;100626.25;5009834;28;20073;-90
2023/01/23 07:49:46;;;;;;;20.50;11.48;;;;;;;4.25;100.00;100625.78;5005028;28;20034;-90
2023/01/23 07:52:18;;;;;;;22.35;11.45;;;;;;;4.16;100.00;100631.75;5006577;28;20035;-88
2023/01/23 07:54:43;;;;;;;19.98;11.38;;;;;;;4.10;100.00;100621.75;4972653;28;20500;-89
2023/01/23 07:57:12;;;;;;;18.33;10.77;;;;;;;4.37;100.00;100632.72;5009237;28;20041;-88
2023/01/23 07:59:45;;;;;;;21.08;12.07;;;;;;;4.41;100.00;100634.13;4973995;28;20113;-90
2023/01/23 08:02:14;;;;;;;23.02;12.77;;;;;;;4.34;100.00;100632.94;4956938;28;20053;-90
2023/01/23 08:04:40;;;;;;;24.08;12.57;;;;;;;4.27;100.00;100629.16;4984440;28;20463;-89
2023/01/23 08:07:15;;;;;;;25.73;12.95;;;;;;;4.28;100.00;100614.22;4992881;23;20042;-89
2023/01/23 08:15:11;;;;;;;22.60;13.73;;;;;;;4.45;100.00;100632.94;5385484;23;20050;-89
2023/01/23 08:17:54;;;;;;;25.85;13.55;;;;;;;4.57;100.00;100624.09;4986157;28;20034;-89
2023/01/23 08:20:21;;;;;;;23.42;13.32;;;;;;;4.35;100.00;100621.50;5022629;23;20042;-87
2023/01/23 08:23:01;;;;;;;19.10;12.02;;;;;;;4.23;100.00;100617.22;4989576;28;20141;-90
2023/01/23 08:25:26;;;;;;;30.30;12.77;;;;;;;4.09;100.00;100625.31;5006608;28;20209;-91
2023/01/23 08:28:01;;;;;;;21.13;12.52;;;;;;;4.32;100.00;100620.91;5005678;28;20045;-91
2023/01/23 08:30:30;;;;;;;21.85;12.35;;;;;;;4.15;100.00;100624.84;4987198;28;20038;-90
2023/01/23 08:33:03;;;;;;;22.95;13.32;;;;;;;4.30;100.00;100622.81;5008300;28;20038;-88
2023/01/23 08:35:33;;;;;;;24.63;13.57;;;;;;;4.46;100.00;100616.25;4996019;23;20047;-90
2023/01/23 08:37:59;;;;;;;24.85;13.13;;;;;;;4.39;100.00;100617.69;4965088;28;20125;-88
2023/01/23 08:40:25;;;;;;;23.83;13.00;;;;;;;4.41;100.00;100617.59;5002965;28;20057;-88
2023/01/23 08:42:54;;;;;;;22.25;13.35;;;;;;;4.36;100.00;100620.56;4986570;28;20145;-89
2023/01/23 08:45:19;;;;;;;23.55;13.45;;;;;;;4.26;100.00;100603.88;5005780;28;20538;-88
2023/01/23 08:47:45;;;;;;;21.05;10.85;;;;;;;4.41;100.00;100605.28;5005969;28;20039;-89
2023/01/23 08:50:11;;;;;;;21.05;12.00;;;;;;;4.36;100.00;100607.44;5014449;23;20053;-88
2023/01/23 08:52:39;;;;;;;18.92;11.40;;;;;;;4.49;100.00;100600.28;5012083;23;20073;-88
2023/01/23 08:55:13;;;;;;;21.17;11.60;;;;;;;4.49;100.00;100597.66;4991058;28;20045;-88
2023/01/23 08:58:01;;;;;;;19.52;11.10;;;;;;;4.32;100.00;100590.25;5023055;23;20050;-87
2023/01/23 09:00:31;;;;;;;21.55;12.07;;;;;;;4.34;100.00;100593.59;4988846;23;20050;-88
2023/01/23 09:03:06;;;;;;;22.60;12.32;;;;;;;4.28;100.00;100599.31;5009253;23;20559;-88
2023/01/23 09:05:37;;;;;;;18.15;10.98;;;;;;;4.40;100.00;100600.16;5002908;28;20046;-89
2023/01/23 09:08:25;;;;;;;19.42;11.68;;;;;;;4.64;100.00;100588.53;5011453;28;20038;-89
2023/01/23 09:11:16;;;;;;;20.30;11.30;;;;;;;4.71;100.00;100586.25;5008613;28;20066;-89
2023/01/23 09:13:48;;;;;;;22.30;11.57;;;;;;;4.30;100.00;100594.81;5004130;28;20479;-91
2023/01/23 09:16:16;;;;;;;22.50;11.88;;;;;;;4.20;100.00;100598.25;5001804;28;20100;-88
2023/01/23 09:18:42;;;;;;;19.30;11.90;;;;;;;4.02;100.00;100595.28;5005337;28;20026;-90
2023/01/23 09:24:55;;;;;;;20.63;11.45;;;;;;;3.87;100.00;100599.94;5007287;28;20049;-90
2023/01/23 09:27:31;;;;;;;16.95;10.48;;;;;;;3.92;100.00;100612.66;4990656;28;20034;-88
2023/01/23 09:30:36;;;;;;;19.23;11.20;;;;;;;3.91;100.00;100613.63;5020437;23;20098;-88
2023/01/23 09:33:02;;;;;;;20.05;11.07;;;;;;;3.96;100.00;100625.44;4984665;28;20054;-89
2023/01/23 09:35:34;;;;;;;24.35;11.05;;;;;;;3.82;100.00;100623.03;4985130;28;20489;-88
2023/01/23 09:38:05;;;;;;;17.30;11.32;;;;;;;3.78;100.00;100620.78;4969378;28;20107;-87
2023/01/23 09:40:36;;;;;;;25.27;12.05;;;;;;;3.76;100.00;100633.13;5001757;28;20046;-91
2023/01/23 09:43:14;;;;;;;18.30;10.98;;;;;;;3.71;100.00;100625.63;5000487;28;20043;-87
2023/01/23 09:45:56;;;;;;;18.63;11.98;;;;;;;3.72;100.00;100639.56;4994817;28;20027;-87
2023/01/23 09:48:38;;;;;;;21.73;12.43;;;;;;;3.76;100.00;100635.75;4976383;28;20043;-88
2023/01/23 09:51:12;;;;;;;20.97;12.00;;;;;;;3.76;100.00;100638.38;4999230;28;20031;-88
2023/01/23 09:53:40;;;;;;;21.60;10.48;;;;;;;3.59;100.00;100632.63;4999984;28;20054;-87
2023/01/23 09:56:26;;;;;;;19.75;12.07;;;;;;;3.57;100.00;100644.19;4983119;28;20026;-89
2023/01/23 09:59:13;;;;;;;21.05;11.85;;;;;;;3.50;100.00;100640.34;4994467;28;20034;-89
2023/01/23 10:01:39;;;;;;;18.75;10.98;;;;;;;3.55;100.00;100641.66;4996141;28;20031;-90
2023/01/23 10:04:09;;;;;;;17.95;11.02;;;;;;;3.75;100.00;100644.56;4999331;28;20053;-86
2023/01/23 10:07:00;;;;;;;24.15;12.38;;;;;;;3.74;100.00;100649.00;4982760;28;20038;-87
2023/01/23 10:09:53;;;;;;;20.45;12.45;;;;;;;3.68;100.00;100641.56;4999575;28;20045;-88
2023/01/23 10:12:38;;;;;;;19.27;11.00;;;;;;;3.86;100.00;100648.06;4982278;28;20098;-91
2023/01/23 10:15:18;;;;;;;28.02;12.45;;;;;;;3.93;100.00;100651.06;5000051;28;20071;-90
2023/01/23 10:17:57;;;;;;;19.35;11.98;;;;;;;3.78;100.00;100649.59;4999380;28;20034;-87
2023/01/23 10:20:29;;;;;;;;;;;;;;;3.69;100.00;100655.50;4964900;28;20038;-90
2023/01/23 10:23:06;;;;;;;18.30;11.05;;;;;;;3.85;100.00;100653.41;4997371;28;19918;-88
2023/01/23 10:25:36;;;;;;;18.67;11.90;;;;;;;3.84;100.00;100663.06;4992551;28;20113;-90
2023/01/23 10:28:21;;;;;;;16.52;10.02;;;;;;;4.03;100.00;100667.75;4980434;28;20431;-88
2023/01/23 10:30:51;;;;;;;20.50;10.07;;;;;;;4.11;100.00;100667.97;4947984;28;20463;-90
2023/01/23 10:33:17;;;;;;;19.40;11.05;;;;;;;4.01;100.00;100673.09;4978933;28;20064;-88
2023/01/23 10:35:46;;;;;;;15.98;10.05;;;;;;;4.13;100.00;100671.34;4963023;28;20039;-88
2023/01/23 10:39:03;;;;;;;12.23;7.55;;;;;;;4.08;100.00;100682.16;4978942;28;20507;-88
2023/01/23 10:41:29;;;;;;;17.17;9.43;;;;;;;4.14;100.00;100681.69;4900670;29;20076;-90
2023/01/23 10:43:56;;;;;;;16.00;9.23;;;;;;;4.05;100.00;100686.81;4885350;29;20124;-89
2023/01/23 10:46:41;;;;;;;16.77;10.55;;;;;;;4.01;100.00;100685.41;4886502;29;20053;-88
2023/01/23 10:49:06;;;;;;;16.52;9.43;;;;;;;4.00;100.00;100681.09;4900631;29;20104;-88
2023/01/23 10:51:34;;;;;;;14.95;8.10;;;;;;;3.85;100.00;100690.09;4907194;28;20518;-87
2023/01/23 10:54:04;;;;;;;14.48;9.13;;;;;;;3.73;100.00;100694.50;4978846;28;20031;-87
2023/01/23 10:56:32;;;;;;;15.75;8.85;;;;;;;3.70;100.00;100707.81;4978610;28;20126;-87
2023/01/23 10:59:00;;;;;;;13.05;8.35;;;;;;;3.53;100.00;100706.44;4976991;28;20488;-88
2023/01/23 11:01:30;;;;;;;13.52;8.70;;;;;;;3.51;100.00;100704.91;4978312;28;20038;-88
2023/01/23 11:03:56;;;;;;;17.13;9.07;;;;;;;3.47;100.00;100714.78;4962442;28;20054;-88
2023/01/23 11:06:24;;;;;;;13.18;8.73;;;;;;;3.40;100.00;100726.63;4980609;28;20401;-88
2023/01/23 11:09:01;;;;;;;14.95;9.30;;;;;;;3.57;100.00;100718.38;4972450;28;20420;-89
2023/01/23 11:11:29;;;;;;;16.13;9.63;;;;;;;3.70;100.00;100722.72;4981107;28;20447;-87
2023/01/23 11:14:10;;;;;;;15.45;9.13;;;;;;;3.43;100.00;100715.94;4963121;28;20042;-89
2023/01/23 11:16:36;;;;;;;17.73;10.88;;;;;;;3.45;100.00;100715.81;4979939;28;20038;-89
2023/01/23 11:19:11;;;;;;;18.58;10.15;;;;;;;3.32;100.00;100720.25;4980702;28;20038;-88
2023/01/23 11:21:51;;;;;;;21.63;10.55;;;;;;;3.46;100.00;100720.09;4977613;28;20050;-89
2023/01/23 11:24:37;;;;;;;16.13;9.95;;;;;;;3.51;100.00;100704.91;4980110;28;20050;-90
2023/01/23 11:27:15;;;;;;;15.30;9.50;;;;;;;3.59;100.00;100711.22;4981677;28;20118;-90
2023/01/23 11:29:59;;;;;;;16.63;9.63;;;;;;;3.60;100.00;100710.28;4963308;28;20499;-90
2023/01/23 11:32:30;;;;;;;14.82;9.10;;;;;;;3.55;100.00;100704.53;4980848;28;20365;-88
2023/01/23 11:35:12;;;;;;;17.80;11.27;;;;;;;3.45;100.00;100695.69;4979658;28;20113;-87
2023/01/23 11:37:41;;;;;;;17.87;10.47;;;;;;;3.50;100.00;100696.19;4981666;28;20039;-88
2023/01/23 11:40:15;;;;;;;16.77;9.05;;;;;;;3.30;100.00;100678.47;4952381;28;20285;-88
2023/01/23 11:42:41;;;;;;;16.25;10.05;;;;;;;3.22;100.00;100675.56;4972347;28;20097;-88
2023/01/23 11:45:32;;;;;;;20.55;11.27;;;;;;;2.91;100.00;100665.66;4984345;28;20097;-88
2023/01/23 11:48:22;;;;;;;19.92;11.23;;;;;;;2.63;100.00;100668.53;4962155;28;20046;-90
2023/01/23 11:51:18;;;;;;;20.77;11.43;;;;;;;2.28;100.00;100661.41;4980392;28;20046;-88
2023/01/23 11:53:56;;;;;;;;;;;;;;;2.18;100.00;100654.28;4980190;28;20046;-88
2023/01/23 11:57:02;;;;;;;19.42;11.32;;;;;;;1.88;100.00;100636.31;4965904;28;20013;-87
2023/01/23 12:00:07;;;;;;;23.42;13.00;;;;;;;1.63;100.00;100628.44;4980300;28;20050;-90
2023/01/23 12:03:20;;;;;;;27.55;14.50;;;;;;;1.60;100.00;100619.03;4979692;28;20066;-91
2023/01/23 12:06:20;;;;;;;29.60;15.88;;;;;;;1.61;100.00;100628.56;4964545;28;20416;-90
2023/01/23 12:09:16;;;;;;;29.95;16.20;;;;;;;1.67;100.00;100609.00;4968818;28;20047;-90
2023/01/23 12:12:10;;;;;;;26.77;15.85;;;;;;;1.54;100.00;100612.44;4972830;28;20046;-90
2023/01/23 12:14:56;;;;;;;31.52;17.42;;;;;;;1.55;100.00;100621.13;4989576;28;20085;-91
2023/01/23 12:17:37;;;;;;;34.83;18.65;;;;;;;1.73;100.00;100600.75;4973837;28;20032;-91
2023/01/23 12:20:27;;;;;;;34.92;18.88;;;;;;;1.87;100.00;100598.88;4943846;28;20130;-88
2023/01/23 12:23:11;;;;;;;32.65;18.33;;;;;;;1.87;100.00;100613.72;4984843;28;20492;-87
2023/01/23 12:25:38;;;;;;;31.88;18.58;;;;;;;2.08;100.00;100643.63;4966643;28;20042;-91
2023/01/23 12:28:20;;;;;;;35.28;19.52;;;;;;;2.12;100.00;100616.34;4985896;28;20045;-90
2023/01/23 12:31:07;;;;;;;36.50;19.20;;;;;;;2.28;100.00;100585.56;4986130;28;20034;-88
2023/01/23 12:33:45;;;;;;;33.90;18.67;;;;;;;2.14;100.00;100590.91;4963559;28;20499;-91
2023/01/23 12:36:53;;;;;;;32.97;18.05;;;;;;;2.02;100.00;100569.06;4981213;28;20042;-90
2023/01/23 12:39:41;;;;;;;32.90;18.98;;;;;;;2.01;100.00;100567.41;4948280;28;20502;-89